Saint Bonnet de Bellac- Haute Vienne - France
Donnes mto: jeudi, 16/02/2012
Date Horaire Temp. E. Hum. E. P.atmo. Pluie Vent Direction Direction Ensoleilleme Solaire P. de rose Temp au vent Rafales
16/02/2012 00:00 2,2 C 92 % 1026,4 hPa 0,0 mm 0,0 km/h (0 Bft) N-NO 337 0 min 0 W/m 1,0 C 2,2 C 0,0 km/h (0 Bft)
16/02/2012 00:10 2,2 C 92 % 1026,3 hPa 0,0 mm 0,0 km/h (0 Bft) N-NO 337 0 min 0 W/m 1,0 C 2,2 C 0,0 km/h (0 Bft)
16/02/2012 00:20 2,2 C 92 % 1026,5 hPa 0,0 mm 0,7 km/h (0 Bft) N-NE 22 0 min 0 W/m 1,0 C 2,2 C 4,0 km/h (1 Bft)
16/02/2012 00:30 2,3 C 92 % 1026,5 hPa 0,0 mm 1,1 km/h (1 Bft) N-NO 337 0 min 0 W/m 1,1 C 2,3 C 6,5 km/h (2 Bft)
16/02/2012 00:40 2,3 C 92 % 1026,5 hPa 0,0 mm 1,4 km/h (1 Bft) NO 315 0 min 0 W/m 1,1 C 2,3 C 3,2 km/h (1 Bft)
16/02/2012 00:50 2,4 C 92 % 1026,6 hPa 0,0 mm 0,7 km/h (0 Bft) NO 315 0 min 0 W/m 1,2 C 2,4 C 4,3 km/h (1 Bft)
16/02/2012 01:00 2,4 C 92 % 1026,6 hPa 0,0 mm 0,0 km/h (0 Bft) NO 315 0 min 0 W/m 1,2 C 2,4 C 0,0 km/h (0 Bft)
16/02/2012 01:10 2,4 C 92 % 1026,6 hPa 0,0 mm 0,0 km/h (0 Bft) NO 315 0 min 0 W/m 1,2 C 2,4 C 0,0 km/h (0 Bft)
16/02/2012 01:20 2,4 C 92 % 1026,7 hPa 0,0 mm 0,0 km/h (0 Bft) NO 315 0 min 0 W/m 1,2 C 2,4 C 0,0 km/h (0 Bft)
16/02/2012 01:30 2,4 C 92 % 1026,6 hPa 0,0 mm 0,0 km/h (0 Bft) NO 315 0 min 0 W/m 1,2 C 2,4 C 0,0 km/h (0 Bft)
16/02/2012 01:40 2,4 C 92 % 1026,5 hPa 0,0 mm 0,0 km/h (0 Bft) NO 315 0 min 0 W/m 1,2 C 2,4 C 0,0 km/h (0 Bft)
16/02/2012 01:50 2,4 C 92 % 1026,5 hPa 0,0 mm 0,0 km/h (0 Bft) N-NO 337 0 min 0 W/m 1,2 C 2,4 C 0,0 km/h (0 Bft)
16/02/2012 02:02 2,4 C 92 % 1026,5 hPa 0,0 mm 0,0 km/h (0 Bft) NO 315 0 min 0 W/m 1,2 C 2,4 C 3,2 km/h (1 Bft)
16/02/2012 02:10 2,5 C 92 % 1026,7 hPa 0,0 mm 0,0 km/h (0 Bft) O-NO 292 0 min 0 W/m 1,3 C 2,5 C 0,0 km/h (0 Bft)
16/02/2012 02:20 2,5 C 92 % 1026,5 hPa 0,0 mm 0,0 km/h (0 Bft) N-NO 337 0 min 0 W/m 1,3 C 2,5 C 0,0 km/h (0 Bft)
16/02/2012 02:30 2,5 C 92 % 1026,6 hPa 0,0 mm 0,0 km/h (0 Bft) NO 315 0 min 0 W/m 1,3 C 2,5 C 0,0 km/h (0 Bft)
16/02/2012 02:40 2,5 C 92 % 1026,7 hPa 0,0 mm 0,0 km/h (0 Bft) NO 315 0 min 0 W/m 1,3 C 2,5 C 0,0 km/h (0 Bft)
16/02/2012 02:50 2,6 C 92 % 1026,6 hPa 0,0 mm 0,0 km/h (0 Bft) O 270 0 min 0 W/m 1,4 C 2,6 C 0,0 km/h (0 Bft)
16/02/2012 03:00 2,5 C 92 % 1026,5 hPa 0,0 mm 1,1 km/h (1 Bft) O-NO 292 0 min 0 W/m 1,3 C 2,5 C 6,1 km/h (2 Bft)
16/02/2012 03:10 2,6 C 92 % 1026,4 hPa 0,0 mm 2,2 km/h (1 Bft) N-NO 337 0 min 0 W/m 1,4 C 2,6 C 4,3 km/h (1 Bft)
16/02/2012 03:20 2,6 C 91 % 1026,4 hPa 0,0 mm 0,7 km/h (0 Bft) NO 315 0 min 0 W/m 1,3 C 2,6 C 0,7 km/h (0 Bft)
16/02/2012 03:30 2,6 C 91 % 1026,4 hPa 0,0 mm 1,4 km/h (1 Bft) NO 315 0 min 0 W/m 1,3 C 2,6 C 6,8 km/h (2 Bft)
16/02/2012 03:40 2,8 C 92 % 1026,4 hPa 0,0 mm 2,9 km/h (1 Bft) NO 315 0 min 0 W/m 1,6 C 2,8 C 2,9 km/h (1 Bft)
16/02/2012 03:50 2,8 C 92 % 1026,4 hPa 0,0 mm 4,3 km/h (1 Bft) NO 315 0 min 0 W/m 1,6 C 2,8 C 6,8 km/h (2 Bft)
16/02/2012 04:00 2,8 C 91 % 1026,2 hPa 0,0 mm 0,4 km/h (0 Bft) N-NO 337 0 min 0 W/m 1,5 C 2,8 C 2,9 km/h (1 Bft)
16/02/2012 04:10 2,8 C 91 % 1026,3 hPa 0,0 mm 1,4 km/h (1 Bft) N-NO 337 0 min 0 W/m 1,5 C 2,8 C 4,3 km/h (1 Bft)
16/02/2012 04:20 2,8 C 92 % 1026,2 hPa 0,0 mm 0,7 km/h (0 Bft) NO 315 0 min 0 W/m 1,6 C 2,8 C 3,6 km/h (1 Bft)
16/02/2012 04:30 2,8 C 91 % 1026,3 hPa 0,0 mm 2,2 km/h (1 Bft) NO 315 0 min 0 W/m 1,5 C 2,8 C 4,0 km/h (1 Bft)
16/02/2012 04:40 2,7 C 91 % 1026,4 hPa 0,0 mm 0,4 km/h (0 Bft) NO 315 0 min 0 W/m 1,4 C 2,7 C 0,4 km/h (0 Bft)
16/02/2012 04:50 2,7 C 92 % 1026,5 hPa 0,0 mm 3,2 km/h (1 Bft) N-NO 337 0 min 0 W/m 1,5 C 2,7 C 4,3 km/h (1 Bft)
16/02/2012 05:00 2,6 C 91 % 1026,4 hPa 0,0 mm 0,4 km/h (0 Bft) NO 315 0 min 0 W/m 1,3 C 2,6 C 0,4 km/h (0 Bft)
16/02/2012 05:10 2,7 C 92 % 1026,2 hPa 0,0 mm 0,7 km/h (0 Bft) N-NO 337 0 min 0 W/m 1,5 C 2,7 C 3,6 km/h (1 Bft)
16/02/2012 05:20 2,6 C 91 % 1026,2 hPa 0,0 mm 4,3 km/h (1 Bft) NO 315 0 min 0 W/m 1,3 C 2,6 C 7,2 km/h (2 Bft)
16/02/2012 05:30 2,6 C 91 % 1026,1 hPa 0,0 mm 0,4 km/h (0 Bft) NO 315 0 min 0 W/m 1,3 C 2,6 C 4,0 km/h (1 Bft)
16/02/2012 05:40 2,6 C 92 % 1026,2 hPa 0,1 mm 3,6 km/h (1 Bft) N-NO 337 0 min 0 W/m 1,4 C 2,6 C 4,3 km/h (1 Bft)
16/02/2012 05:50 2,6 C 92 % 1026,1 hPa 0,0 mm 0,0 km/h (0 Bft) N-NO 337 0 min 0 W/m 1,4 C 2,6 C 0,0 km/h (0 Bft)
16/02/2012 06:00 2,6 C 92 % 1026,1 hPa 0,0 mm 0,0 km/h (0 Bft) N-NO 337 0 min 0 W/m 1,4 C 2,6 C 0,0 km/h (0 Bft)
16/02/2012 06:10 2,7 C 92 % 1026,1 hPa 0,0 mm 0,7 km/h (0 Bft) N 360 0 min 0 W/m 1,5 C 2,7 C 3,2 km/h (1 Bft)
16/02/2012 06:20 2,8 C 92 % 1026,1 hPa 0,0 mm 0,0 km/h (0 Bft) N-NE 22 0 min 0 W/m 1,6 C 2,8 C 0,0 km/h (0 Bft)
16/02/2012 06:30 2,8 C 92 % 1026,1 hPa 0,0 mm 0,0 km/h (0 Bft) N 360 0 min 0 W/m 1,6 C 2,8 C 0,0 km/h (0 Bft)
16/02/2012 06:40 2,8 C 92 % 1026,1 hPa 0,0 mm 1,1 km/h (1 Bft) N 360 0 min 0 W/m 1,6 C 2,8 C 6,1 km/h (2 Bft)
16/02/2012 06:50 2,8 C 92 % 1026,1 hPa 0,0 mm 0,0 km/h (0 Bft) N-NO 337 0 min 0 W/m 1,6 C 2,8 C 0,0 km/h (0 Bft)
16/02/2012 07:00 2,8 C 92 % 1026,2 hPa 0,0 mm 0,0 km/h (0 Bft) N-NO 337 0 min 0 W/m 1,6 C 2,8 C 0,0 km/h (0 Bft)
16/02/2012 07:10 2,8 C 92 % 1026,2 hPa 0,0 mm 0,0 km/h (0 Bft) NE 45 0 min 0 W/m 1,6 C 2,8 C 0,0 km/h (0 Bft)
16/02/2012 07:20 2,8 C 92 % 1026,3 hPa 0,0 mm 0,0 km/h (0 Bft) NE 45 0 min 0 W/m 1,6 C 2,8 C 0,0 km/h (0 Bft)
16/02/2012 07:30 2,8 C 92 % 1026,4 hPa 0,0 mm 2,5 km/h (1 Bft) N-NE 22 0 min 0 W/m 1,6 C 2,8 C 4,3 km/h (1 Bft)
16/02/2012 07:40 2,8 C 92 % 1026,5 hPa 0,0 mm 2,2 km/h (1 Bft) N-NE 22 0 min 0 W/m 1,6 C 2,8 C 6,8 km/h (2 Bft)
16/02/2012 07:50 2,9 C 92 % 1026,6 hPa 0,0 mm 0,0 km/h (0 Bft) N-NE 22 0 min 0 W/m 1,7 C 2,9 C 0,0 km/h (0 Bft)
16/02/2012 08:00 2,8 C 92 % 1026,7 hPa 0,0 mm 0,0 km/h (0 Bft) N 360 0 min 0 W/m 1,6 C 2,8 C 0,0 km/h (0 Bft)
16/02/2012 08:10 2,8 C 92 % 1026,8 hPa 0,0 mm 0,0 km/h (0 Bft) N-NE 22 2 min 0 W/m 1,6 C 2,8 C 0,0 km/h (0 Bft)
16/02/2012 08:20 2,8 C 92 % 1026,9 hPa 0,0 mm 0,7 km/h (0 Bft) N-NE 22 2 min 0 W/m 1,6 C 2,8 C 2,9 km/h (1 Bft)
16/02/2012 08:30 2,8 C 92 % 1026,9 hPa 0,0 mm 0,7 km/h (0 Bft) N-NE 22 2 min 0 W/m 1,6 C 2,8 C 4,0 km/h (1 Bft)
16/02/2012 08:40 2,8 C 92 % 1026,7 hPa 0,0 mm 0,0 km/h (0 Bft) N-NE 22 2 min 0 W/m 1,6 C 2,8 C 0,0 km/h (0 Bft)
16/02/2012 08:50 2,8 C 92 % 1026,8 hPa 0,0 mm 0,4 km/h (0 Bft) N-NE 22 2 min 0 W/m 1,6 C 2,8 C 4,0 km/h (1 Bft)
16/02/2012 09:00 2,8 C 93 % 1026,8 hPa 0,0 mm 0,0 km/h (0 Bft) N-NE 22 2 min 0 W/m 1,8 C 2,8 C 2,9 km/h (1 Bft)
16/02/2012 09:10 2,8 C 93 % 1026,9 hPa 0,0 mm 0,0 km/h (0 Bft) N-NE 22 2 min 0 W/m 1,8 C 2,8 C 0,0 km/h (0 Bft)
16/02/2012 09:20 2,8 C 93 % 1027,1 hPa 0,0 mm 0,4 km/h (0 Bft) NE 45 2 min 0 W/m 1,8 C 2,8 C 3,6 km/h (1 Bft)
16/02/2012 09:30 2,9 C 93 % 1027,0 hPa 0,0 mm 0,4 km/h (0 Bft) N-NE 22 2 min 0 W/m 1,9 C 2,9 C 4,0 km/h (1 Bft)
16/02/2012 09:40 3,1 C 93 % 1027,0 hPa 0,0 mm 0,7 km/h (0 Bft) N-NE 22 2 min 0 W/m 2,1 C 3,1 C 4,0 km/h (1 Bft)
16/02/2012 09:50 3,2 C 94 % 1026,9 hPa 0,0 mm 1,1 km/h (1 Bft) N-NE 22 2 min 0 W/m 2,3 C 3,2 C 3,6 km/h (1 Bft)
16/02/2012 10:00 3,4 C 94 % 1026,9 hPa 0,0 mm 4,0 km/h (1 Bft) N-NE 22 2 min 0 W/m 2,5 C 3,4 C 10,1 km/h (2 Bft)
16/02/2012 10:10 3,6 C 94 % 1026,8 hPa 0,0 mm 3,2 km/h (1 Bft) N-NE 22 2 min 0 W/m 2,7 C 3,6 C 3,2 km/h (1 Bft)
16/02/2012 10:20 3,8 C 94 % 1026,8 hPa 0,0 mm 4,3 km/h (1 Bft) E-NE 67 2 min 0 W/m 2,9 C 3,8 C 11,5 km/h (2 Bft)
16/02/2012 10:30 3,8 C 94 % 1027,0 hPa 0,0 mm 1,1 km/h (1 Bft) N-NE 22 2 min 0 W/m 2,9 C 3,8 C 6,5 km/h (2 Bft)
16/02/2012 10:40 4,0 C 94 % 1027,1 hPa 0,0 mm 1,4 km/h (1 Bft) NE 45 2 min 0 W/m 3,1 C 4,0 C 4,3 km/h (1 Bft)
16/02/2012 10:50 4,2 C 94 % 1027,1 hPa 0,0 mm 5,4 km/h (2 Bft) N-NE 22 2 min 0 W/m 3,3 C 3,0 C 10,1 km/h (2 Bft)
16/02/2012 11:00 4,3 C 94 % 1027,0 hPa 0,0 mm 10,1 km/h (2 Bft) NO 315 2 min 0 W/m 3,4 C 1,8 C 16,6 km/h (3 Bft)
16/02/2012 11:10 4,6 C 94 % 1027,0 hPa 0,0 mm 3,2 km/h (1 Bft) N-NE 22 2 min 0 W/m 3,7 C 4,6 C 8,3 km/h (2 Bft)
16/02/2012 11:20 4,9 C 94 % 1027,0 hPa 0,0 mm 7,6 km/h (2 Bft) N-NE 22 2 min 0 W/m 4,0 C 3,1 C 7,9 km/h (2 Bft)
16/02/2012 11:30 5,1 C 93 % 1027,0 hPa 0,0 mm 1,1 km/h (1 Bft) N-NE 22 2 min 0 W/m 4,1 C 5,1 C 4,3 km/h (1 Bft)
16/02/2012 11:40 5,3 C 93 % 1027,1 hPa 0,0 mm 1,8 km/h (1 Bft) N-NE 22 2 min 0 W/m 4,3 C 5,3 C 4,0 km/h (1 Bft)
16/02/2012 11:50 5,4 C 93 % 1027,1 hPa 0,0 mm 5,0 km/h (1 Bft) N-NE 22 2 min 0 W/m 4,4 C 4,5 C 9,4 km/h (2 Bft)
16/02/2012 12:00 5,4 C 92 % 1027,1 hPa 0,0 mm 7,9 km/h (2 Bft) N-NE 22 2 min 0 W/m 4,2 C 3,6 C 14,8 km/h (3 Bft)
16/02/2012 12:10 5,5 C 92 % 1027,2 hPa 0,0 mm 9,4 km/h (2 Bft) NE 45 2 min 0 W/m 4,3 C 3,4 C 9,4 km/h (2 Bft)
16/02/2012 12:20 5,6 C 91 % 1027,1 hPa 0,0 mm 6,8 km/h (2 Bft) N-NE 22 2 min 0 W/m 4,2 C 4,2 C 10,8 km/h (2 Bft)
16/02/2012 12:30 5,8 C 91 % 1027,1 hPa 0,0 mm 5,8 km/h (2 Bft) NE 45 2 min 0 W/m 4,4 C 4,7 C 5,8 km/h (2 Bft)
16/02/2012 12:40 6,0 C 91 % 1027,0 hPa 0,0 mm 4,7 km/h (1 Bft) N-NE 22 2 min 0 W/m 4,6 C 5,3 C 6,8 km/h (2 Bft)
16/02/2012 12:50 6,4 C 90 % 1027,0 hPa 0,0 mm 10,8 km/h (2 Bft) N 360 2 min 0 W/m 4,9 C 4,2 C 13,0 km/h (3 Bft)
16/02/2012 13:00 6,8 C 89 % 1026,8 hPa 0,0 mm 7,2 km/h (2 Bft) N-NE 22 2 min 0 W/m 5,1 C 5,5 C 9,4 km/h (2 Bft)
16/02/2012 13:10 6,9 C 88 % 1026,8 hPa 0,0 mm 5,8 km/h (2 Bft) N-NE 22 2 min 0 W/m 5,1 C 6,0 C 5,8 km/h (2 Bft)
16/02/2012 13:20 7,4 C 88 % 1026,7 hPa 0,0 mm 5,0 km/h (1 Bft) E-NE 67 2 min 0 W/m 5,5 C 6,8 C 6,5 km/h (2 Bft)
16/02/2012 13:30 7,9 C 86 % 1026,6 hPa 0,0 mm 4,0 km/h (1 Bft) E-NE 67 2 min 0 W/m 5,7 C 7,9 C 8,6 km/h (2 Bft)
16/02/2012 13:40 8,2 C 85 % 1026,7 hPa 0,0 mm 2,2 km/h (1 Bft) N-NE 22 2 min 0 W/m 5,8 C 8,2 C 4,3 km/h (1 Bft)
16/02/2012 13:50 8,3 C 84 % 1026,7 hPa 0,0 mm 2,9 km/h (1 Bft) N-NE 22 2 min 0 W/m 5,8 C 8,3 C 4,3 km/h (1 Bft)
16/02/2012 14:00 8,3 C 84 % 1026,6 hPa 0,0 mm 3,2 km/h (1 Bft) NE 45 2 min 0 W/m 5,8 C 8,3 C 6,5 km/h (2 Bft)
16/02/2012 14:10 8,4 C 83 % 1026,5 hPa 0,0 mm 5,4 km/h (2 Bft) NE 45 2 min 0 W/m 5,7 C 7,8 C 9,0 km/h (2 Bft)
16/02/2012 14:20 8,5 C 82 % 1026,5 hPa 0,0 mm 5,8 km/h (2 Bft) N-NE 22 2 min 0 W/m 5,6 C 7,8 C 7,2 km/h (2 Bft)
16/02/2012 14:30 8,6 C 82 % 1026,4 hPa 0,0 mm 2,5 km/h (1 Bft) NE 45 2 min 0 W/m 5,7 C 8,6 C 4,3 km/h (1 Bft)
16/02/2012 14:40 8,6 C 82 % 1026,3 hPa 0,0 mm 6,5 km/h (2 Bft) N-NE 22 2 min 0 W/m 5,7 C 7,7 C 10,4 km/h (2 Bft)
16/02/2012 14:50 8,6 C 80 % 1026,2 hPa 0,0 mm 0,0 km/h (0 Bft) N-NE 22 2 min 0 W/m 5,3 C 8,6 C 3,2 km/h (1 Bft)
16/02/2012 15:00 8,5 C 80 % 1026,3 hPa 0,0 mm 0,7 km/h (0 Bft) NO 315 2 min 0 W/m 5,3 C 8,5 C 4,3 km/h (1 Bft)
16/02/2012 15:10 8,3 C 80 % 1026,3 hPa 0,0 mm 1,1 km/h (1 Bft) NO 315 2 min 0 W/m 5,1 C 8,3 C 4,0 km/h (1 Bft)
16/02/2012 15:20 8,1 C 81 % 1026,3 hPa 0,0 mm 0,4 km/h (0 Bft) N 360 2 min 0 W/m 5,0 C 8,1 C 0,4 km/h (0 Bft)
16/02/2012 15:30 7,8 C 81 % 1026,2 hPa 0,0 mm 2,5 km/h (1 Bft) N-NE 22 2 min 0 W/m 4,7 C 7,8 C 2,5 km/h (1 Bft)
16/02/2012 15:40 7,8 C 81 % 1026,2 hPa 0,0 mm 0,0 km/h (0 Bft) N-NE 22 2 min 0 W/m 4,7 C 7,8 C 0,0 km/h (0 Bft)
16/02/2012 15:50 7,6 C 82 % 1026,2 hPa 0,0 mm 0,0 km/h (0 Bft) N-NO 337 2 min 0 W/m 4,7 C 7,6 C 0,0 km/h (0 Bft)
16/02/2012 16:00 7,5 C 82 % 1026,2 hPa 0,0 mm 0,0 km/h (0 Bft) N 360 2 min 0 W/m 4,6 C 7,5 C 0,0 km/h (0 Bft)
16/02/2012 16:10 7,4 C 82 % 1026,1 hPa 0,0 mm 0,7 km/h (0 Bft) N 360 2 min 0 W/m 4,5 C 7,4 C 2,9 km/h (1 Bft)
16/02/2012 16:20 7,4 C 82 % 1026,1 hPa 0,0 mm 0,0 km/h (0 Bft) E 90 2 min 0 W/m 4,5 C 7,4 C 3,6 km/h (1 Bft)
16/02/2012 16:30 7,3 C 82 % 1026,2 hPa 0,0 mm 0,0 km/h (0 Bft) N 360 2 min 0 W/m 4,4 C 7,3 C 3,2 km/h (1 Bft)
16/02/2012 16:40 7,2 C 82 % 1026,1 hPa 0,0 mm 2,5 km/h (1 Bft) N 360 2 min 0 W/m 4,3 C 7,2 C 4,0 km/h (1 Bft)
16/02/2012 16:50 7,2 C 83 % 1026,1 hPa 0,0 mm 0,4 km/h (0 Bft) N 360 2 min 0 W/m 4,5 C 7,2 C 3,6 km/h (1 Bft)
16/02/2012 17:00 7,2 C 82 % 1026,1 hPa 0,0 mm 1,4 km/h (1 Bft) N 360 2 min 0 W/m 4,3 C 7,2 C 6,1 km/h (2 Bft)
16/02/2012 17:10 7,1 C 82 % 1026,1 hPa 0,0 mm 3,2 km/h (1 Bft) N-NE 22 2 min 0 W/m 4,2 C 7,1 C 7,2 km/h (2 Bft)
16/02/2012 17:20 7,1 C 82 % 1026,1 hPa 0,0 mm 0,0 km/h (0 Bft) N 360 2 min 0 W/m 4,2 C 7,1 C 0,0 km/h (0 Bft)
16/02/2012 17:30 6,9 C 82 % 1026,1 hPa 0,0 mm 2,9 km/h (1 Bft) N 360 2 min 0 W/m 4,0 C 6,9 C 7,9 km/h (2 Bft)
16/02/2012 17:40 6,9 C 83 % 1026,2 hPa 0,0 mm 0,7 km/h (0 Bft) N-NE 22 2 min 0 W/m 4,2 C 6,9 C 0,7 km/h (0 Bft)
16/02/2012 17:50 6,8 C 83 % 1026,2 hPa 0,0 mm 3,6 km/h (1 Bft) N-NE 22 2 min 0 W/m 4,1 C 6,8 C 7,6 km/h (2 Bft)
16/02/2012 18:00 6,7 C 83 % 1026,2 hPa 0,0 mm 2,5 km/h (1 Bft) N-NE 22 2 min 0 W/m 4,0 C 6,7 C 2,9 km/h (1 Bft)
16/02/2012 18:10 6,6 C 83 % 1026,2 hPa 0,0 mm 1,8 km/h (1 Bft) N 360 2 min 0 W/m 3,9 C 6,6 C 1,8 km/h (1 Bft)
16/02/2012 18:20 6,4 C 83 % 1026,3 hPa 0,0 mm 0,0 km/h (0 Bft) N 360 0 min 0 W/m 3,7 C 6,4 C 0,0 km/h (0 Bft)
16/02/2012 18:30 6,3 C 83 % 1026,4 hPa 0,0 mm 2,5 km/h (1 Bft) N 360 0 min 0 W/m 3,6 C 6,3 C 6,5 km/h (2 Bft)
16/02/2012 18:40 6,2 C 84 % 1026,5 hPa 0,0 mm 0,0 km/h (0 Bft) N 360 0 min 0 W/m 3,7 C 6,2 C 0,0 km/h (0 Bft)
16/02/2012 18:50 6,1 C 84 % 1026,6 hPa 0,0 mm 0,4 km/h (0 Bft) N 360 0 min 0 W/m 3,6 C 6,1 C 3,6 km/h (1 Bft)
16/02/2012 19:00 6,0 C 84 % 1026,7 hPa 0,0 mm 0,0 km/h (0 Bft) N-NE 22 0 min 0 W/m 3,5 C 6,0 C 0,0 km/h (0 Bft)
16/02/2012 19:10 5,9 C 84 % 1026,6 hPa 0,0 mm 3,2 km/h (1 Bft) N 360 0 min 0 W/m 3,4 C 5,9 C 6,1 km/h (2 Bft)
16/02/2012 19:20 5,8 C 85 % 1026,7 hPa 0,0 mm 0,7 km/h (0 Bft) NE 45 0 min 0 W/m 3,5 C 5,8 C 3,6 km/h (1 Bft)
16/02/2012 19:30 5,8 C 85 % 1026,7 hPa 0,0 mm 3,2 km/h (1 Bft) N-NE 22 0 min 0 W/m 3,5 C 5,8 C 4,3 km/h (1 Bft)
16/02/2012 19:40 5,8 C 85 % 1026,6 hPa 0,0 mm 0,0 km/h (0 Bft) N-NO 337 0 min 0 W/m 3,5 C 5,8 C 0,0 km/h (0 Bft)
16/02/2012 19:50 5,8 C 85 % 1026,7 hPa 0,0 mm 0,0 km/h (0 Bft) N-NE 22 0 min 0 W/m 3,5 C 5,8 C 0,0 km/h (0 Bft)
16/02/2012 20:00 5,6 C 86 % 1026,8 hPa 0,0 mm 0,0 km/h (0 Bft) N-NE 22 0 min 0 W/m 3,4 C 5,6 C 0,0 km/h (0 Bft)
16/02/2012 20:10 5,6 C 86 % 1026,7 hPa 0,0 mm 0,0 km/h (0 Bft) N-NE 22 0 min 0 W/m 3,4 C 5,6 C 3,2 km/h (1 Bft)
16/02/2012 20:20 5,5 C 86 % 1026,8 hPa 0,0 mm 0,0 km/h (0 Bft) N-NE 22 0 min 0 W/m 3,3 C 5,5 C 0,0 km/h (0 Bft)
16/02/2012 20:30 5,4 C 86 % 1026,9 hPa 0,0 mm 0,0 km/h (0 Bft) N-NE 22 0 min 0 W/m 3,3 C 5,4 C 0,0 km/h (0 Bft)
16/02/2012 20:40 5,4 C 86 % 1026,9 hPa 0,0 mm 1,4 km/h (1 Bft) N-NE 22 0 min 0 W/m 3,3 C 5,4 C 4,0 km/h (1 Bft)
16/02/2012 20:50 5,4 C 86 % 1026,9 hPa 0,0 mm 1,1 km/h (1 Bft) N-NE 22 0 min 0 W/m 3,3 C 5,4 C 1,1 km/h (1 Bft)
16/02/2012 21:00 5,3 C 87 % 1027,0 hPa 0,0 mm 0,0 km/h (0 Bft) N-NE 22 0 min 0 W/m 3,3 C 5,3 C 0,0 km/h (0 Bft)
16/02/2012 21:10 5,2 C 87 % 1027,0 hPa 0,0 mm 0,0 km/h (0 Bft) N-NE 22 0 min 0 W/m 3,2 C 5,2 C 0,0 km/h (0 Bft)
16/02/2012 21:20 5,1 C 87 % 1026,9 hPa 0,0 mm 0,0 km/h (0 Bft) NE 45 0 min 0 W/m 3,1 C 5,1 C 0,0 km/h (0 Bft)
16/02/2012 21:30 5,1 C 87 % 1027,0 hPa 0,0 mm 0,0 km/h (0 Bft) NE 45 0 min 0 W/m 3,1 C 5,1 C 0,0 km/h (0 Bft)
16/02/2012 21:40 4,9 C 88 % 1026,9 hPa 0,0 mm 0,0 km/h (0 Bft) NE 45 0 min 0 W/m 3,1 C 4,9 C 0,0 km/h (0 Bft)
16/02/2012 21:50 4,9 C 88 % 1026,9 hPa 0,0 mm 0,0 km/h (0 Bft) N-NE 22 0 min 0 W/m 3,1 C 4,9 C 0,0 km/h (0 Bft)
16/02/2012 22:00 4,8 C 88 % 1027,0 hPa 0,0 mm 0,0 km/h (0 Bft) N 360 0 min 0 W/m 3,0 C 4,8 C 0,0 km/h (0 Bft)
16/02/2012 22:10 4,8 C 88 % 1027,1 hPa 0,0 mm 0,0 km/h (0 Bft) N 360 0 min 0 W/m 3,0 C 4,8 C 0,0 km/h (0 Bft)
16/02/2012 22:20 4,8 C 88 % 1027,2 hPa 0,0 mm 0,0 km/h (0 Bft) N 360 0 min 0 W/m 3,0 C 4,8 C 0,0 km/h (0 Bft)
16/02/2012 22:30 4,8 C 88 % 1027,3 hPa 0,0 mm 0,0 km/h (0 Bft) N 360 0 min 0 W/m 3,0 C 4,8 C 0,0 km/h (0 Bft)
16/02/2012 22:40 4,8 C 89 % 1027,2 hPa 0,0 mm 0,0 km/h (0 Bft) N 360 0 min 0 W/m 3,1 C 4,8 C 0,0 km/h (0 Bft)
16/02/2012 22:50 4,8 C 89 % 1027,2 hPa 0,0 mm 0,0 km/h (0 Bft) N 360 0 min 0 W/m 3,1 C 4,8 C 0,0 km/h (0 Bft)
16/02/2012 23:00 4,8 C 89 % 1027,1 hPa 0,0 mm 0,0 km/h (0 Bft) N 360 0 min 0 W/m 3,1 C 4,8 C 0,0 km/h (0 Bft)
16/02/2012 23:10 4,8 C 89 % 1027,3 hPa 0,0 mm 0,0 km/h (0 Bft) N 360 0 min 0 W/m 3,1 C 4,8 C 0,0 km/h (0 Bft)
16/02/2012 23:20 4,8 C 89 % 1027,3 hPa 0,0 mm 0,0 km/h (0 Bft) N-NE 22 0 min 0 W/m 3,1 C 4,8 C 0,0 km/h (0 Bft)
16/02/2012 23:30 4,8 C 89 % 1027,3 hPa 0,0 mm 0,0 km/h (0 Bft) N-NE 22 0 min 0 W/m 3,1 C 4,8 C 0,0 km/h (0 Bft)
16/02/2012 23:40 4,8 C 90 % 1027,3 hPa 0,0 mm 0,4 km/h (0 Bft) N-NE 22 0 min 0 W/m 3,3 C 4,8 C 3,6 km/h (1 Bft)
16/02/2012 23:50 4,8 C 90 % 1027,4 hPa 0,0 mm 0,0 km/h (0 Bft) N-NE 22 0 min 0 W/m 3,3 C 4,8 C 0,0 km/h (0 Bft)
_ Min-Heure 00:20 15:10 17:30 - 23:50 - - - - 00:20 11:00 23:50
Minimum _ 2,2 C 80 % 1026,1 hPa - 0,0 km/h (0 Bft) - - - - 1,0 C 1,8 C 0,0 km/h (0 Bft)
_ Max-Heure 14:50 11:20 23:50 05:40 12:50 - - 18:10 23:50 13:40 14:50 11:00
Maximum _ 8,6 C 94 % 1027,4 hPa 0,1 mm 10,8 km/h
N (2 Bft)
- - 2 min 0 W/m 5,8 C 8,6 C 16,6 km/h
NO (3 Bft)
Moyenne _ 4,7 C 89 % 1026,6 hPa #0,1 mm 1,6 km/h (1 Bft) N-NE - #2:02 h 0 W/m 3,0 C 4,5 C 3,3 km/h (1 Bft)
Saint Bonnet de Bellac- Haute Vienne - France